sensor_id;sensor_type;location;lat;lon;timestamp;P1;durP1;ratioP1;P2;durP2;ratioP2
9880;SDS011;4979;51.014;6.678;2022-10-31T00:01:30;12.35;;;7.03;;
9880;SDS011;4979;51.014;6.678;2022-10-31T00:04:03;10.07;;;5.85;;
9880;SDS011;4979;51.014;6.678;2022-10-31T00:06:29;13.48;;;7.93;;
9880;SDS011;4979;51.014;6.678;2022-10-31T00:08:59;12.32;;;6.90;;
9880;SDS011;4979;51.014;6.678;2022-10-31T00:11:26;13.10;;;6.93;;
9880;SDS011;4979;51.014;6.678;2022-10-31T00:13:52;11.05;;;6.40;;
9880;SDS011;4979;51.014;6.678;2022-10-31T00:16:19;15.13;;;7.30;;
9880;SDS011;4979;51.014;6.678;2022-10-31T00:18:49;14.60;;;7.00;;
9880;SDS011;4979;51.014;6.678;2022-10-31T00:21:16;19.25;;;7.65;;
9880;SDS011;4979;51.014;6.678;2022-10-31T00:23:42;14.23;;;7.25;;
9880;SDS011;4979;51.014;6.678;2022-10-31T00:26:07;11.93;;;6.95;;
9880;SDS011;4979;51.014;6.678;2022-10-31T00:28:33;16.90;;;6.93;;
9880;SDS011;4979;51.014;6.678;2022-10-31T00:31:03;14.93;;;7.43;;
9880;SDS011;4979;51.014;6.678;2022-10-31T00:33:32;18.65;;;7.93;;
9880;SDS011;4979;51.014;6.678;2022-10-31T00:35:59;15.52;;;6.95;;
9880;SDS011;4979;51.014;6.678;2022-10-31T00:38:24;18.65;;;7.68;;
9880;SDS011;4979;51.014;6.678;2022-10-31T00:40:50;18.88;;;7.95;;
9880;SDS011;4979;51.014;6.678;2022-10-31T00:43:15;13.90;;;7.00;;
9880;SDS011;4979;51.014;6.678;2022-10-31T00:45:41;15.90;;;8.23;;
9880;SDS011;4979;51.014;6.678;2022-10-31T00:48:08;19.73;;;8.38;;
9880;SDS011;4979;51.014;6.678;2022-10-31T00:50:34;16.77;;;7.38;;
9880;SDS011;4979;51.014;6.678;2022-10-31T00:52:59;14.55;;;7.85;;
9880;SDS011;4979;51.014;6.678;2022-10-31T00:55:25;16.30;;;8.00;;
9880;SDS011;4979;51.014;6.678;2022-10-31T00:57:51;11.18;;;7.40;;
9880;SDS011;4979;51.014;6.678;2022-10-31T01:00:16;14.20;;;7.10;;
9880;SDS011;4979;51.014;6.678;2022-10-31T01:02:42;13.35;;;7.72;;
9880;SDS011;4979;51.014;6.678;2022-10-31T01:05:07;19.25;;;8.68;;
9880;SDS011;4979;51.014;6.678;2022-10-31T01:07:38;15.52;;;8.70;;
9880;SDS011;4979;51.014;6.678;2022-10-31T01:10:05;15.00;;;7.85;;
9880;SDS011;4979;51.014;6.678;2022-10-31T01:12:42;21.17;;;8.15;;
9880;SDS011;4979;51.014;6.678;2022-10-31T01:15:09;16.38;;;8.82;;
9880;SDS011;4979;51.014;6.678;2022-10-31T01:17:36;21.08;;;8.02;;
9880;SDS011;4979;51.014;6.678;2022-10-31T01:20:03;17.73;;;8.55;;
9880;SDS011;4979;51.014;6.678;2022-10-31T01:22:30;15.50;;;8.23;;
9880;SDS011;4979;51.014;6.678;2022-10-31T01:24:55;17.02;;;7.93;;
9880;SDS011;4979;51.014;6.678;2022-10-31T01:27:21;21.05;;;9.18;;
9880;SDS011;4979;51.014;6.678;2022-10-31T01:29:46;15.43;;;8.48;;
9880;SDS011;4979;51.014;6.678;2022-10-31T01:32:12;16.90;;;8.18;;
9880;SDS011;4979;51.014;6.678;2022-10-31T01:34:37;15.75;;;8.57;;
9880;SDS011;4979;51.014;6.678;2022-10-31T01:37:03;20.92;;;8.45;;
9880;SDS011;4979;51.014;6.678;2022-10-31T01:39:28;17.58;;;8.55;;
9880;SDS011;4979;51.014;6.678;2022-10-31T01:41:54;20.00;;;8.57;;
9880;SDS011;4979;51.014;6.678;2022-10-31T01:46:46;17.55;;;10.30;;
9880;SDS011;4979;51.014;6.678;2022-10-31T01:49:35;21.42;;;8.77;;
9880;SDS011;4979;51.014;6.678;2022-10-31T01:52:09;16.95;;;9.30;;
9880;SDS011;4979;51.014;6.678;2022-10-31T01:54:39;16.50;;;8.70;;
9880;SDS011;4979;51.014;6.678;2022-10-31T01:57:08;17.05;;;8.52;;
9880;SDS011;4979;51.014;6.678;2022-10-31T01:59:39;22.42;;;8.70;;
9880;SDS011;4979;51.014;6.678;2022-10-31T02:02:08;14.20;;;8.60;;
9880;SDS011;4979;51.014;6.678;2022-10-31T02:04:35;16.77;;;8.20;;
9880;SDS011;4979;51.014;6.678;2022-10-31T02:07:02;14.73;;;8.13;;
9880;SDS011;4979;51.014;6.678;2022-10-31T02:09:35;14.77;;;8.02;;
9880;SDS011;4979;51.014;6.678;2022-10-31T02:12:02;16.02;;;8.55;;
9880;SDS011;4979;51.014;6.678;2022-10-31T02:14:29;20.13;;;8.73;;
9880;SDS011;4979;51.014;6.678;2022-10-31T02:16:56;15.80;;;9.38;;
9880;SDS011;4979;51.014;6.678;2022-10-31T02:22:09;14.23;;;7.85;;
9880;SDS011;4979;51.014;6.678;2022-10-31T02:25:01;18.70;;;10.07;;
9880;SDS011;4979;51.014;6.678;2022-10-31T02:27:37;14.25;;;7.70;;
9880;SDS011;4979;51.014;6.678;2022-10-31T02:30:18;12.82;;;7.97;;
9880;SDS011;4979;51.014;6.678;2022-10-31T02:33:08;12.45;;;8.10;;
9880;SDS011;4979;51.014;6.678;2022-10-31T02:36:02;16.90;;;8.50;;
9880;SDS011;4979;51.014;6.678;2022-10-31T02:41:30;19.30;;;8.02;;
9880;SDS011;4979;51.014;6.678;2022-10-31T02:44:13;13.77;;;8.10;;
9880;SDS011;4979;51.014;6.678;2022-10-31T02:49:24;14.02;;;7.10;;
9880;SDS011;4979;51.014;6.678;2022-10-31T02:52:21;19.92;;;8.60;;
9880;SDS011;4979;51.014;6.678;2022-10-31T02:54:50;16.70;;;8.95;;
9880;SDS011;4979;51.014;6.678;2022-10-31T02:57:17;15.38;;;8.20;;
9880;SDS011;4979;51.014;6.678;2022-10-31T02:59:50;17.70;;;8.70;;
9880;SDS011;4979;51.014;6.678;2022-10-31T03:10:16;15.02;;;8.10;;
9880;SDS011;4979;51.014;6.678;2022-10-31T03:15:33;13.93;;;7.55;;
9880;SDS011;4979;51.014;6.678;2022-10-31T03:18:04;17.13;;;7.75;;
9880;SDS011;4979;51.014;6.678;2022-10-31T03:20:56;19.95;;;8.93;;
9880;SDS011;4979;51.014;6.678;2022-10-31T03:23:47;20.27;;;8.27;;
9880;SDS011;4979;51.014;6.678;2022-10-31T03:26:15;15.18;;;8.50;;
9880;SDS011;4979;51.014;6.678;2022-10-31T03:28:53;14.23;;;7.72;;
9880;SDS011;4979;51.014;6.678;2022-10-31T03:31:24;17.45;;;8.63;;
9880;SDS011;4979;51.014;6.678;2022-10-31T03:33:55;20.70;;;8.30;;
9880;SDS011;4979;51.014;6.678;2022-10-31T03:36:24;21.25;;;9.18;;
9880;SDS011;4979;51.014;6.678;2022-10-31T03:38:52;15.93;;;9.23;;
9880;SDS011;4979;51.014;6.678;2022-10-31T03:41:20;15.60;;;8.55;;
9880;SDS011;4979;51.014;6.678;2022-10-31T03:43:54;19.23;;;10.15;;
9880;SDS011;4979;51.014;6.678;2022-10-31T03:46:24;15.13;;;9.73;;
9880;SDS011;4979;51.014;6.678;2022-10-31T03:48:50;15.05;;;10.02;;
9880;SDS011;4979;51.014;6.678;2022-10-31T03:53:45;15.38;;;10.07;;
9880;SDS011;4979;51.014;6.678;2022-10-31T03:56:33;22.00;;;10.35;;
9880;SDS011;4979;51.014;6.678;2022-10-31T03:59:05;21.40;;;9.32;;
9880;SDS011;4979;51.014;6.678;2022-10-31T04:01:39;23.80;;;9.93;;
9880;SDS011;4979;51.014;6.678;2022-10-31T04:04:09;24.10;;;14.02;;
9880;SDS011;4979;51.014;6.678;2022-10-31T04:06:36;43.72;;;24.92;;
9880;SDS011;4979;51.014;6.678;2022-10-31T04:09:04;33.97;;;21.67;;
9880;SDS011;4979;51.014;6.678;2022-10-31T04:11:36;31.92;;;16.77;;
9880;SDS011;4979;51.014;6.678;2022-10-31T04:14:07;26.08;;;14.55;;
9880;SDS011;4979;51.014;6.678;2022-10-31T04:16:36;23.83;;;13.35;;
9880;SDS011;4979;51.014;6.678;2022-10-31T04:19:03;26.73;;;15.50;;
9880;SDS011;4979;51.014;6.678;2022-10-31T04:21:29;22.05;;;14.55;;
9880;SDS011;4979;51.014;6.678;2022-10-31T04:23:55;21.63;;;12.90;;
9880;SDS011;4979;51.014;6.678;2022-10-31T04:26:21;33.28;;;17.48;;
9880;SDS011;4979;51.014;6.678;2022-10-31T04:28:47;54.60;;;26.58;;
9880;SDS011;4979;51.014;6.678;2022-10-31T04:31:13;69.28;;;31.45;;
9880;SDS011;4979;51.014;6.678;2022-10-31T04:33:39;66.40;;;30.45;;
9880;SDS011;4979;51.014;6.678;2022-10-31T04:36:05;41.13;;;21.88;;
9880;SDS011;4979;51.014;6.678;2022-10-31T04:38:30;40.25;;;20.58;;
9880;SDS011;4979;51.014;6.678;2022-10-31T04:40:56;29.85;;;17.65;;
9880;SDS011;4979;51.014;6.678;2022-10-31T04:43:21;40.40;;;21.90;;
9880;SDS011;4979;51.014;6.678;2022-10-31T04:45:47;35.20;;;19.17;;
9880;SDS011;4979;51.014;6.678;2022-10-31T04:48:13;30.88;;;16.80;;
9880;SDS011;4979;51.014;6.678;2022-10-31T04:50:38;34.17;;;16.52;;
9880;SDS011;4979;51.014;6.678;2022-10-31T04:53:04;28.50;;;13.73;;
9880;SDS011;4979;51.014;6.678;2022-10-31T04:55:30;24.40;;;12.45;;
9880;SDS011;4979;51.014;6.678;2022-10-31T04:57:55;25.00;;;12.25;;
9880;SDS011;4979;51.014;6.678;2022-10-31T05:00:22;16.65;;;9.85;;
9880;SDS011;4979;51.014;6.678;2022-10-31T05:02:49;22.48;;;12.00;;
9880;SDS011;4979;51.014;6.678;2022-10-31T05:05:21;19.63;;;9.60;;
9880;SDS011;4979;51.014;6.678;2022-10-31T05:07:50;20.05;;;10.57;;
9880;SDS011;4979;51.014;6.678;2022-10-31T05:10:17;16.70;;;10.98;;
9880;SDS011;4979;51.014;6.678;2022-10-31T05:12:48;19.42;;;10.07;;
9880;SDS011;4979;51.014;6.678;2022-10-31T05:15:15;16.13;;;9.73;;
9880;SDS011;4979;51.014;6.678;2022-10-31T05:17:42;22.25;;;9.90;;
9880;SDS011;4979;51.014;6.678;2022-10-31T05:20:08;15.07;;;9.07;;
9880;SDS011;4979;51.014;6.678;2022-10-31T05:22:35;15.75;;;9.40;;
9880;SDS011;4979;51.014;6.678;2022-10-31T05:25:01;19.67;;;10.65;;
9880;SDS011;4979;51.014;6.678;2022-10-31T05:27:26;19.02;;;9.45;;
9880;SDS011;4979;51.014;6.678;2022-10-31T05:29:52;18.10;;;8.20;;
9880;SDS011;4979;51.014;6.678;2022-10-31T05:32:17;13.25;;;8.40;;
9880;SDS011;4979;51.014;6.678;2022-10-31T05:34:43;18.35;;;8.98;;
9880;SDS011;4979;51.014;6.678;2022-10-31T05:37:08;19.83;;;8.30;;
9880;SDS011;4979;51.014;6.678;2022-10-31T05:39:34;20.15;;;8.93;;
9880;SDS011;4979;51.014;6.678;2022-10-31T05:41:59;18.20;;;9.23;;
9880;SDS011;4979;51.014;6.678;2022-10-31T05:44:25;14.52;;;8.52;;
9880;SDS011;4979;51.014;6.678;2022-10-31T05:46:50;21.88;;;10.45;;
9880;SDS011;4979;51.014;6.678;2022-10-31T05:49:16;16.75;;;9.02;;
9880;SDS011;4979;51.014;6.678;2022-10-31T05:51:42;21.40;;;9.10;;
9880;SDS011;4979;51.014;6.678;2022-10-31T05:54:08;12.18;;;7.43;;
9880;SDS011;4979;51.014;6.678;2022-10-31T05:56:33;12.18;;;8.32;;
9880;SDS011;4979;51.014;6.678;2022-10-31T05:58:59;16.23;;;8.88;;
9880;SDS011;4979;51.014;6.678;2022-10-31T06:01:24;15.38;;;8.55;;
9880;SDS011;4979;51.014;6.678;2022-10-31T06:03:50;16.40;;;9.48;;
9880;SDS011;4979;51.014;6.678;2022-10-31T06:06:15;13.90;;;8.82;;
9880;SDS011;4979;51.014;6.678;2022-10-31T06:08:41;16.92;;;8.57;;
9880;SDS011;4979;51.014;6.678;2022-10-31T06:11:06;14.98;;;7.97;;
9880;SDS011;4979;51.014;6.678;2022-10-31T06:13:32;16.08;;;8.15;;
9880;SDS011;4979;51.014;6.678;2022-10-31T06:15:57;12.38;;;8.00;;
9880;SDS011;4979;51.014;6.678;2022-10-31T06:18:23;21.15;;;8.63;;
9880;SDS011;4979;51.014;6.678;2022-10-31T06:20:48;15.65;;;8.40;;
9880;SDS011;4979;51.014;6.678;2022-10-31T06:23:14;13.13;;;7.63;;
9880;SDS011;4979;51.014;6.678;2022-10-31T06:25:40;15.93;;;7.75;;
9880;SDS011;4979;51.014;6.678;2022-10-31T06:28:05;14.73;;;7.45;;
9880;SDS011;4979;51.014;6.678;2022-10-31T06:30:31;15.32;;;8.07;;
9880;SDS011;4979;51.014;6.678;2022-10-31T06:33:03;12.70;;;7.25;;
9880;SDS011;4979;51.014;6.678;2022-10-31T06:35:29;15.90;;;8.10;;
9880;SDS011;4979;51.014;6.678;2022-10-31T06:37:55;13.15;;;7.80;;
9880;SDS011;4979;51.014;6.678;2022-10-31T06:40:21;15.13;;;8.25;;
9880;SDS011;4979;51.014;6.678;2022-10-31T06:42:47;14.07;;;7.53;;
9880;SDS011;4979;51.014;6.678;2022-10-31T06:45:20;15.02;;;7.53;;
9880;SDS011;4979;51.014;6.678;2022-10-31T06:47:50;10.52;;;6.70;;
9880;SDS011;4979;51.014;6.678;2022-10-31T06:50:19;11.18;;;7.15;;
9880;SDS011;4979;51.014;6.678;2022-10-31T06:52:56;16.95;;;7.72;;
9880;SDS011;4979;51.014;6.678;2022-10-31T06:55:23;22.20;;;8.95;;
9880;SDS011;4979;51.014;6.678;2022-10-31T06:57:57;18.40;;;8.18;;
9880;SDS011;4979;51.014;6.678;2022-10-31T07:00:25;20.05;;;11.00;;
9880;SDS011;4979;51.014;6.678;2022-10-31T07:02:54;12.52;;;8.00;;
9880;SDS011;4979;51.014;6.678;2022-10-31T07:05:19;20.27;;;8.90;;
9880;SDS011;4979;51.014;6.678;2022-10-31T07:07:45;28.23;;;12.40;;
9880;SDS011;4979;51.014;6.678;2022-10-31T07:10:11;25.85;;;10.60;;
9880;SDS011;4979;51.014;6.678;2022-10-31T07:12:37;19.02;;;7.30;;
9880;SDS011;4979;51.014;6.678;2022-10-31T07:15:02;19.73;;;9.00;;
9880;SDS011;4979;51.014;6.678;2022-10-31T07:17:29;18.17;;;8.68;;
9880;SDS011;4979;51.014;6.678;2022-10-31T07:19:54;12.07;;;7.68;;
9880;SDS011;4979;51.014;6.678;2022-10-31T07:22:20;16.65;;;7.60;;
9880;SDS011;4979;51.014;6.678;2022-10-31T07:24:45;13.05;;;7.90;;
9880;SDS011;4979;51.014;6.678;2022-10-31T07:27:11;15.43;;;7.22;;
9880;SDS011;4979;51.014;6.678;2022-10-31T07:29:36;14.05;;;7.40;;
9880;SDS011;4979;51.014;6.678;2022-10-31T07:32:02;16.20;;;8.63;;
9880;SDS011;4979;51.014;6.678;2022-10-31T07:34:28;30.10;;;12.35;;
9880;SDS011;4979;51.014;6.678;2022-10-31T07:36:53;15.23;;;7.63;;
9880;SDS011;4979;51.014;6.678;2022-10-31T07:39:19;10.70;;;7.00;;
9880;SDS011;4979;51.014;6.678;2022-10-31T07:41:44;22.40;;;8.23;;
9880;SDS011;4979;51.014;6.678;2022-10-31T07:44:10;20.00;;;8.60;;
9880;SDS011;4979;51.014;6.678;2022-10-31T07:46:35;14.10;;;7.80;;
9880;SDS011;4979;51.014;6.678;2022-10-31T07:49:01;26.40;;;10.95;;
9880;SDS011;4979;51.014;6.678;2022-10-31T07:51:27;17.63;;;8.73;;
9880;SDS011;4979;51.014;6.678;2022-10-31T07:53:52;16.98;;;9.80;;
9880;SDS011;4979;51.014;6.678;2022-10-31T07:56:18;25.63;;;11.43;;
9880;SDS011;4979;51.014;6.678;2022-10-31T07:58:43;16.30;;;9.45;;
9880;SDS011;4979;51.014;6.678;2022-10-31T08:01:09;16.40;;;7.68;;
9880;SDS011;4979;51.014;6.678;2022-10-31T08:03:34;31.40;;;10.60;;
9880;SDS011;4979;51.014;6.678;2022-10-31T08:06:00;14.07;;;8.77;;
9880;SDS011;4979;51.014;6.678;2022-10-31T08:08:25;19.20;;;11.40;;
9880;SDS011;4979;51.014;6.678;2022-10-31T08:10:53;18.13;;;8.23;;
9880;SDS011;4979;51.014;6.678;2022-10-31T08:13:19;17.40;;;8.35;;
9880;SDS011;4979;51.014;6.678;2022-10-31T08:15:45;16.20;;;8.32;;
9880;SDS011;4979;51.014;6.678;2022-10-31T08:18:15;24.13;;;9.68;;
9880;SDS011;4979;51.014;6.678;2022-10-31T08:20:41;22.25;;;8.85;;
9880;SDS011;4979;51.014;6.678;2022-10-31T08:23:08;21.33;;;9.57;;
9880;SDS011;4979;51.014;6.678;2022-10-31T08:25:35;14.43;;;7.72;;
9880;SDS011;4979;51.014;6.678;2022-10-31T08:28:01;18.42;;;8.48;;
9880;SDS011;4979;51.014;6.678;2022-10-31T08:30:28;11.57;;;7.45;;
9880;SDS011;4979;51.014;6.678;2022-10-31T08:33:02;17.17;;;8.60;;
9880;SDS011;4979;51.014;6.678;2022-10-31T08:35:33;19.65;;;8.25;;
9880;SDS011;4979;51.014;6.678;2022-10-31T08:37:59;14.27;;;7.78;;
9880;SDS011;4979;51.014;6.678;2022-10-31T08:40:25;11.68;;;7.38;;
9880;SDS011;4979;51.014;6.678;2022-10-31T08:42:59;15.65;;;8.77;;
9880;SDS011;4979;51.014;6.678;2022-10-31T08:45:30;19.77;;;9.48;;
9880;SDS011;4979;51.014;6.678;2022-10-31T08:47:59;17.58;;;8.93;;
9880;SDS011;4979;51.014;6.678;2022-10-31T08:50:27;17.90;;;8.90;;
9880;SDS011;4979;51.014;6.678;2022-10-31T08:52:53;18.65;;;9.35;;
9880;SDS011;4979;51.014;6.678;2022-10-31T08:55:24;15.52;;;10.13;;
9880;SDS011;4979;51.014;6.678;2022-10-31T08:57:54;16.95;;;10.20;;
9880;SDS011;4979;51.014;6.678;2022-10-31T09:00:23;18.33;;;9.15;;
9880;SDS011;4979;51.014;6.678;2022-10-31T09:02:56;14.10;;;8.23;;
9880;SDS011;4979;51.014;6.678;2022-10-31T09:05:22;13.05;;;8.75;;
9880;SDS011;4979;51.014;6.678;2022-10-31T09:07:48;17.42;;;8.70;;
9880;SDS011;4979;51.014;6.678;2022-10-31T09:10:13;20.58;;;9.35;;
9880;SDS011;4979;51.014;6.678;2022-10-31T09:12:39;17.35;;;9.65;;
9880;SDS011;4979;51.014;6.678;2022-10-31T09:15:06;18.08;;;9.13;;
9880;SDS011;4979;51.014;6.678;2022-10-31T09:17:32;16.23;;;8.90;;
9880;SDS011;4979;51.014;6.678;2022-10-31T09:19:57;23.85;;;8.77;;
9880;SDS011;4979;51.014;6.678;2022-10-31T09:22:23;18.13;;;8.85;;
9880;SDS011;4979;51.014;6.678;2022-10-31T09:24:49;12.45;;;8.05;;
9880;SDS011;4979;51.014;6.678;2022-10-31T09:27:14;14.48;;;7.90;;
9880;SDS011;4979;51.014;6.678;2022-10-31T09:29:40;21.27;;;7.68;;
9880;SDS011;4979;51.014;6.678;2022-10-31T09:32:05;12.07;;;7.57;;
9880;SDS011;4979;51.014;6.678;2022-10-31T09:34:31;12.48;;;7.07;;
9880;SDS011;4979;51.014;6.678;2022-10-31T09:36:56;19.67;;;7.90;;
9880;SDS011;4979;51.014;6.678;2022-10-31T09:39:22;13.05;;;7.50;;
9880;SDS011;4979;51.014;6.678;2022-10-31T09:41:51;10.32;;;6.80;;
9880;SDS011;4979;51.014;6.678;2022-10-31T09:47:50;12.48;;;7.38;;
9880;SDS011;4979;51.014;6.678;2022-10-31T09:50:41;26.27;;;8.55;;
9880;SDS011;4979;51.014;6.678;2022-10-31T09:53:25;14.68;;;6.70;;
9880;SDS011;4979;51.014;6.678;2022-10-31T09:56:00;11.50;;;7.47;;
9880;SDS011;4979;51.014;6.678;2022-10-31T09:58:30;13.43;;;7.03;;
9880;SDS011;4979;51.014;6.678;2022-10-31T10:01:00;14.73;;;7.47;;
9880;SDS011;4979;51.014;6.678;2022-10-31T10:03:44;13.65;;;8.05;;
9880;SDS011;4979;51.014;6.678;2022-10-31T10:06:15;19.20;;;8.60;;
9880;SDS011;4979;51.014;6.678;2022-10-31T10:08:44;18.90;;;9.23;;
9880;SDS011;4979;51.014;6.678;2022-10-31T10:11:22;14.30;;;8.60;;
9880;SDS011;4979;51.014;6.678;2022-10-31T10:14:04;15.63;;;7.82;;
9880;SDS011;4979;51.014;6.678;2022-10-31T10:27:29;15.98;;;7.35;;
9880;SDS011;4979;51.014;6.678;2022-10-31T10:30:18;12.48;;;7.68;;
9880;SDS011;4979;51.014;6.678;2022-10-31T10:32:46;14.20;;;8.30;;
9880;SDS011;4979;51.014;6.678;2022-10-31T10:37:57;13.52;;;8.93;;
9880;SDS011;4979;51.014;6.678;2022-10-31T10:40:43;15.38;;;7.75;;
9880;SDS011;4979;51.014;6.678;2022-10-31T10:59:52;13.52;;;7.07;;
9880;SDS011;4979;51.014;6.678;2022-10-31T11:02:18;14.65;;;6.82;;
9880;SDS011;4979;51.014;6.678;2022-10-31T11:04:50;13.75;;;7.50;;
9880;SDS011;4979;51.014;6.678;2022-10-31T11:07:19;15.38;;;7.03;;
9880;SDS011;4979;51.014;6.678;2022-10-31T11:09:45;15.40;;;6.78;;
9880;SDS011;4979;51.014;6.678;2022-10-31T11:12:21;12.18;;;5.93;;
9880;SDS011;4979;51.014;6.678;2022-10-31T11:14:53;13.82;;;6.25;;
9880;SDS011;4979;51.014;6.678;2022-10-31T11:17:28;8.73;;;5.72;;
9880;SDS011;4979;51.014;6.678;2022-10-31T11:20:00;17.30;;;6.07;;
9880;SDS011;4979;51.014;6.678;2022-10-31T11:22:29;15.32;;;7.88;;
9880;SDS011;4979;51.014;6.678;2022-10-31T11:24:55;17.15;;;8.27;;
9880;SDS011;4979;51.014;6.678;2022-10-31T11:27:22;10.63;;;6.20;;
9880;SDS011;4979;51.014;6.678;2022-10-31T11:29:49;15.52;;;6.53;;
9880;SDS011;4979;51.014;6.678;2022-10-31T11:32:19;33.85;;;17.38;;
9880;SDS011;4979;51.014;6.678;2022-10-31T11:34:53;21.67;;;11.18;;
9880;SDS011;4979;51.014;6.678;2022-10-31T11:37:24;12.18;;;6.70;;
9880;SDS011;4979;51.014;6.678;2022-10-31T11:40:04;23.80;;;7.88;;
9880;SDS011;4979;51.014;6.678;2022-10-31T11:42:41;12.48;;;5.85;;
9880;SDS011;4979;51.014;6.678;2022-10-31T11:45:17;15.35;;;8.18;;
9880;SDS011;4979;51.014;6.678;2022-10-31T11:47:53;19.77;;;8.55;;
9880;SDS011;4979;51.014;6.678;2022-10-31T11:52:51;12.77;;;6.03;;
9880;SDS011;4979;51.014;6.678;2022-10-31T11:55:37;21.02;;;9.98;;
9880;SDS011;4979;51.014;6.678;2022-10-31T11:58:04;11.02;;;5.68;;
9880;SDS011;4979;51.014;6.678;2022-10-31T12:00:49;13.75;;;6.55;;
9880;SDS011;4979;51.014;6.678;2022-10-31T12:03:24;12.65;;;5.00;;
9880;SDS011;4979;51.014;6.678;2022-10-31T12:06:02;10.73;;;5.25;;
9880;SDS011;4979;51.014;6.678;2022-10-31T12:08:33;13.10;;;5.90;;
9880;SDS011;4979;51.014;6.678;2022-10-31T12:11:07;20.98;;;16.10;;
9880;SDS011;4979;51.014;6.678;2022-10-31T12:16:59;12.68;;;5.32;;
9880;SDS011;4979;51.014;6.678;2022-10-31T12:25:19;11.80;;;5.35;;
9880;SDS011;4979;51.014;6.678;2022-10-31T12:31:45;6.40;;;4.93;;
9880;SDS011;4979;51.014;6.678;2022-10-31T12:34:00;14.25;;;5.53;;
9880;SDS011;4979;51.014;6.678;2022-10-31T12:41:38;15.27;;;5.60;;
9880;SDS011;4979;51.014;6.678;2022-10-31T12:47:06;12.40;;;5.93;;
9880;SDS011;4979;51.014;6.678;2022-10-31T12:52:43;8.35;;;5.20;;
9880;SDS011;4979;51.014;6.678;2022-10-31T12:58:20;15.50;;;5.70;;
9880;SDS011;4979;51.014;6.678;2022-10-31T13:00:50;10.25;;;5.07;;
9880;SDS011;4979;51.014;6.678;2022-10-31T13:06:24;13.63;;;5.07;;
9880;SDS011;4979;51.014;6.678;2022-10-31T13:08:58;9.85;;;4.80;;
9880;SDS011;4979;51.014;6.678;2022-10-31T13:11:30;14.95;;;5.15;;
9880;SDS011;4979;51.014;6.678;2022-10-31T13:14:22;8.57;;;4.72;;
9880;SDS011;4979;51.014;6.678;2022-10-31T13:16:53;13.85;;;4.97;;
9880;SDS011;4979;51.014;6.678;2022-10-31T13:19:31;8.32;;;4.40;;
9880;SDS011;4979;51.014;6.678;2022-10-31T13:22:22;7.20;;;4.70;;
9880;SDS011;4979;51.014;6.678;2022-10-31T13:24:54;10.98;;;4.18;;
9880;SDS011;4979;51.014;6.678;2022-10-31T13:27:24;15.73;;;5.10;;
9880;SDS011;4979;51.014;6.678;2022-10-31T13:32:40;7.25;;;4.40;;
9880;SDS011;4979;51.014;6.678;2022-10-31T13:35:13;15.43;;;5.05;;
9880;SDS011;4979;51.014;6.678;2022-10-31T13:40:42;17.58;;;4.63;;
9880;SDS011;4979;51.014;6.678;2022-10-31T13:43:38;13.15;;;4.25;;
9880;SDS011;4979;51.014;6.678;2022-10-31T13:48:59;13.15;;;4.40;;
9880;SDS011;4979;51.014;6.678;2022-10-31T13:51:26;14.95;;;5.10;;
9880;SDS011;4979;51.014;6.678;2022-10-31T14:01:52;12.85;;;4.95;;
9880;SDS011;4979;51.014;6.678;2022-10-31T14:06:54;10.57;;;4.15;;
9880;SDS011;4979;51.014;6.678;2022-10-31T14:12:11;12.93;;;4.78;;
9880;SDS011;4979;51.014;6.678;2022-10-31T14:14:51;7.68;;;4.40;;
9880;SDS011;4979;51.014;6.678;2022-10-31T14:17:21;16.02;;;4.60;;
9880;SDS011;4979;51.014;6.678;2022-10-31T14:20:00;9.13;;;4.28;;
9880;SDS011;4979;51.014;6.678;2022-10-31T14:22:35;9.25;;;4.25;;
9880;SDS011;4979;51.014;6.678;2022-10-31T14:25:24;8.13;;;4.20;;
9880;SDS011;4979;51.014;6.678;2022-10-31T14:27:52;10.95;;;4.68;;
9880;SDS011;4979;51.014;6.678;2022-10-31T14:30:19;14.60;;;4.45;;
9880;SDS011;4979;51.014;6.678;2022-10-31T14:32:49;10.15;;;4.57;;
9880;SDS011;4979;51.014;6.678;2022-10-31T14:39:00;13.13;;;5.75;;
9880;SDS011;4979;51.014;6.678;2022-10-31T14:49:25;19.20;;;7.63;;
9880;SDS011;4979;51.014;6.678;2022-10-31T14:52:05;16.05;;;7.20;;
9880;SDS011;4979;51.014;6.678;2022-10-31T14:54:40;19.92;;;8.00;;
9880;SDS011;4979;51.014;6.678;2022-10-31T14:59:53;38.03;;;15.73;;
9880;SDS011;4979;51.014;6.678;2022-10-31T15:02:24;40.03;;;15.68;;
9880;SDS011;4979;51.014;6.678;2022-10-31T15:05:11;44.92;;;18.58;;
9880;SDS011;4979;51.014;6.678;2022-10-31T15:07:47;77.10;;;30.30;;
9880;SDS011;4979;51.014;6.678;2022-10-31T15:10:36;76.25;;;32.45;;
9880;SDS011;4979;51.014;6.678;2022-10-31T15:13:09;51.22;;;22.33;;
9880;SDS011;4979;51.014;6.678;2022-10-31T15:15:46;48.45;;;30.48;;
9880;SDS011;4979;51.014;6.678;2022-10-31T15:18:16;18.48;;;11.07;;
9880;SDS011;4979;51.014;6.678;2022-10-31T15:20:44;10.10;;;6.57;;
9880;SDS011;4979;51.014;6.678;2022-10-31T15:23:16;9.15;;;6.05;;
9880;SDS011;4979;51.014;6.678;2022-10-31T15:25:59;9.73;;;4.40;;
9880;SDS011;4979;51.014;6.678;2022-10-31T15:28:25;8.45;;;5.05;;
9880;SDS011;4979;51.014;6.678;2022-10-31T15:30:55;14.30;;;4.50;;
9880;SDS011;4979;51.014;6.678;2022-10-31T15:33:24;11.80;;;4.25;;
9880;SDS011;4979;51.014;6.678;2022-10-31T15:35:55;12.75;;;5.03;;
9880;SDS011;4979;51.014;6.678;2022-10-31T15:38:25;10.27;;;6.82;;
9880;SDS011;4979;51.014;6.678;2022-10-31T15:40:55;16.20;;;9.02;;
9880;SDS011;4979;51.014;6.678;2022-10-31T15:43:29;14.82;;;7.63;;
9880;SDS011;4979;51.014;6.678;2022-10-31T15:46:00;14.98;;;6.50;;
9880;SDS011;4979;51.014;6.678;2022-10-31T15:48:26;21.85;;;10.38;;
9880;SDS011;4979;51.014;6.678;2022-10-31T15:50:53;21.95;;;13.77;;
9880;SDS011;4979;51.014;6.678;2022-10-31T15:53:25;8.20;;;4.35;;
9880;SDS011;4979;51.014;6.678;2022-10-31T15:56:00;10.57;;;4.88;;
9880;SDS011;4979;51.014;6.678;2022-10-31T15:58:35;10.82;;;4.20;;
9880;SDS011;4979;51.014;6.678;2022-10-31T16:01:42;8.48;;;4.60;;
9880;SDS011;4979;51.014;6.678;2022-10-31T16:06:43;9.55;;;4.00;;
9880;SDS011;4979;51.014;6.678;2022-10-31T16:09:20;7.47;;;3.85;;
9880;SDS011;4979;51.014;6.678;2022-10-31T16:11:48;8.25;;;3.65;;
9880;SDS011;4979;51.014;6.678;2022-10-31T16:14:18;15.05;;;4.32;;
9880;SDS011;4979;51.014;6.678;2022-10-31T16:16:48;10.07;;;3.90;;
9880;SDS011;4979;51.014;6.678;2022-10-31T16:19:19;11.45;;;3.90;;
9880;SDS011;4979;51.014;6.678;2022-10-31T16:22:03;10.18;;;4.10;;
9880;SDS011;4979;51.014;6.678;2022-10-31T16:24:32;9.10;;;3.80;;
9880;SDS011;4979;51.014;6.678;2022-10-31T16:27:03;8.00;;;3.75;;
9880;SDS011;4979;51.014;6.678;2022-10-31T16:29:43;11.32;;;4.53;;
9880;SDS011;4979;51.014;6.678;2022-10-31T16:32:27;11.02;;;4.72;;
9880;SDS011;4979;51.014;6.678;2022-10-31T16:37:46;12.07;;;5.88;;
9880;SDS011;4979;51.014;6.678;2022-10-31T16:40:12;9.27;;;4.80;;
9880;SDS011;4979;51.014;6.678;2022-10-31T16:42:39;17.58;;;11.25;;
9880;SDS011;4979;51.014;6.678;2022-10-31T16:45:05;10.27;;;4.47;;
9880;SDS011;4979;51.014;6.678;2022-10-31T16:47:32;8.23;;;4.13;;
9880;SDS011;4979;51.014;6.678;2022-10-31T16:49:58;11.55;;;5.90;;
9880;SDS011;4979;51.014;6.678;2022-10-31T16:52:25;12.02;;;4.93;;
9880;SDS011;4979;51.014;6.678;2022-10-31T16:54:51;19.88;;;9.20;;
9880;SDS011;4979;51.014;6.678;2022-10-31T16:57:18;17.58;;;5.03;;
9880;SDS011;4979;51.014;6.678;2022-10-31T16:59:51;13.13;;;4.80;;
9880;SDS011;4979;51.014;6.678;2022-10-31T17:02:18;12.38;;;5.07;;
9880;SDS011;4979;51.014;6.678;2022-10-31T17:04:44;14.52;;;4.43;;
9880;SDS011;4979;51.014;6.678;2022-10-31T17:07:10;13.93;;;7.15;;
9880;SDS011;4979;51.014;6.678;2022-10-31T17:09:35;12.68;;;4.95;;
9880;SDS011;4979;51.014;6.678;2022-10-31T17:12:01;18.42;;;5.30;;
9880;SDS011;4979;51.014;6.678;2022-10-31T17:14:27;12.27;;;6.00;;
9880;SDS011;4979;51.014;6.678;2022-10-31T17:16:53;17.90;;;5.50;;
9880;SDS011;4979;51.014;6.678;2022-10-31T17:19:18;13.63;;;4.97;;
9880;SDS011;4979;51.014;6.678;2022-10-31T17:21:44;15.75;;;5.15;;
9880;SDS011;4979;51.014;6.678;2022-10-31T17:24:13;17.05;;;5.03;;
9880;SDS011;4979;51.014;6.678;2022-10-31T17:26:39;18.85;;;5.18;;
9880;SDS011;4979;51.014;6.678;2022-10-31T17:29:05;17.20;;;5.00;;